Time;durP1;ratioP1;P1;durP2;ratioP2;P2;SDS_P1;SDS_P2;PMS_P1;PMS_P2;Temp;Humidity;BMP_temperature;BMP_pressure;BME280_temperature;BME280_humidity;BME280_pressure;Samples;Min_cycle;Max_cycle;Signal;HPM_P1;HPM_P2
2023/12/17 00:01:44;;;;;;;10.15;3.72;;;;;;;9.31;100.00;103802.91;6085546;19;20019;-71
2023/12/17 00:03:47;;;;;;;8.68;3.85;;;;;;;9.25;100.00;103798.47;6085453;19;20014;-72
2023/12/17 00:05:54;;;;;;;10.05;3.00;;;;;;;9.29;100.00;103791.50;6083155;19;20327;-73
2023/12/17 00:08:00;;;;;;;11.20;3.97;;;;;;;9.28;100.00;103793.25;6083606;19;20015;-72
2023/12/17 00:10:06;;;;;;;9.48;2.92;;;;;;;9.29;100.00;103786.25;6083218;19;20038;-73
2023/12/17 00:12:12;;;;;;;8.93;3.42;;;;;;;9.30;100.00;103785.41;6084597;19;20002;-72
2023/12/17 00:14:18;;;;;;;14.02;4.28;;;;;;;9.28;100.00;103781.88;6083820;19;20018;-71
2023/12/17 00:16:23;;;;;;;7.88;3.55;;;;;;;9.28;100.00;103785.38;6083915;19;20011;-73
2023/12/17 00:18:28;;;;;;;6.75;4.00;;;;;;;9.30;100.00;103790.66;6082140;19;20197;-72
2023/12/17 00:20:33;;;;;;;6.85;3.60;;;;;;;9.33;100.00;103783.69;6084850;19;20014;-71
2023/12/17 00:22:41;;;;;;;13.32;3.97;;;;;;;9.29;100.00;103781.00;6084559;19;20011;-72
2023/12/17 00:24:43;;;;;;;9.13;3.83;;;;;;;9.29;100.00;103775.75;6083044;19;20003;-72
2023/12/17 00:26:50;;;;;;;11.38;4.45;;;;;;;9.30;100.00;103773.16;6082584;19;20006;-71
2023/12/17 00:28:54;;;;;;;10.07;3.97;;;;;;;9.25;100.00;103780.09;6084085;19;20091;-72
2023/12/17 00:31:00;;;;;;;8.23;4.28;;;;;;;9.25;100.00;103776.59;6084714;19;20006;-72
2023/12/17 00:33:05;;;;;;;10.57;3.55;;;;;;;9.28;100.00;103789.75;6083764;19;20011;-72
2023/12/17 00:35:09;;;;;;;9.60;3.25;;;;;;;9.29;100.00;103791.50;6086437;19;20014;-72
2023/12/17 00:37:15;;;;;;;5.97;3.50;;;;;;;9.24;100.00;103786.19;6089611;19;20526;-72
2023/12/17 00:39:22;;;;;;;9.48;3.47;;;;;;;9.28;100.00;103787.13;6090117;19;20486;-72
2023/12/17 00:41:26;;;;;;;9.10;4.13;;;;;;;9.31;100.00;103781.91;6089928;19;20002;-72
2023/12/17 00:43:31;;;;;;;7.78;2.83;;;;;;;9.33;100.00;103769.69;6089372;19;20510;-73
2023/12/17 00:45:33;;;;;;;6.53;3.17;;;;;;;9.37;100.00;103763.59;6090604;19;20025;-72
2023/12/17 00:47:38;;;;;;;8.27;3.95;;;;;;;9.36;100.00;103759.22;6088697;19;20031;-71
2023/12/17 00:49:44;;;;;;;10.30;3.85;;;;;;;9.34;100.00;103755.69;6091742;19;20061;-72
2023/12/17 00:51:49;;;;;;;7.10;3.72;;;;;;;9.35;100.00;103757.47;6090510;19;20009;-71
2023/12/17 00:53:54;;;;;;;11.88;4.18;;;;;;;9.33;100.00;103757.44;6086832;19;20022;-71
2023/12/17 00:56:02;;;;;;;10.40;3.60;;;;;;;9.35;100.00;103750.47;6090670;19;20730;-72
2023/12/17 00:58:07;;;;;;;11.00;4.07;;;;;;;9.34;100.00;103756.56;6090956;19;20019;-72
2023/12/17 01:00:14;;;;;;;8.60;4.13;;;;;;;9.39;100.00;103764.50;6088198;19;20015;-72
2023/12/17 01:02:17;;;;;;;11.50;4.07;;;;;;;9.39;100.00;103759.25;6085535;19;20441;-72
2023/12/17 01:04:22;;;;;;;7.15;3.38;;;;;;;9.37;100.00;103758.34;6087688;19;20341;-73
2023/12/17 01:06:27;;;;;;;13.05;4.22;;;;;;;9.37;100.00;103747.84;6089463;19;20042;-72
2023/12/17 01:08:32;;;;;;;8.05;3.38;;;;;;;9.34;100.00;103753.94;6088330;19;20868;-73
2023/12/17 01:10:34;;;;;;;5.57;3.80;;;;;;;9.41;100.00;103755.78;6088585;19;20014;-73
2023/12/17 01:12:42;;;;;;;9.38;4.07;;;;;;;9.37;100.00;103751.38;6086082;19;20014;-73
2023/12/17 01:14:50;;;;;;;10.02;3.40;;;;;;;9.36;100.00;103760.09;6088354;19;20020;-72
2023/12/17 01:16:57;;;;;;;7.35;2.83;;;;;;;9.36;100.00;103749.59;6086992;19;20604;-72
2023/12/17 01:19:02;;;;;;;4.90;2.92;;;;;;;9.42;100.00;103733.03;6087476;19;20014;-72
2023/12/17 01:21:11;;;;;;;8.75;3.30;;;;;;;9.39;100.00;103741.75;6086607;19;20524;-72
2023/12/17 01:23:16;;;;;;;7.78;3.10;;;;;;;9.35;100.00;103746.97;6087866;19;20031;-70
2023/12/17 01:25:18;;;;;;;9.18;3.28;;;;;;;9.37;100.00;103748.75;6088331;19;20046;-73
2023/12/17 01:27:26;;;;;;;5.65;3.00;;;;;;;9.35;100.00;103742.59;6087474;19;20018;-71
2023/12/17 01:29:33;;;;;;;4.32;2.90;;;;;;;9.37;100.00;103732.09;6088355;19;20127;-71
2023/12/17 01:31:38;;;;;;;5.25;3.15;;;;;;;9.37;100.00;103729.47;6082253;19;20526;-72
2023/12/17 01:33:43;;;;;;;7.35;3.47;;;;;;;9.39;100.00;103727.75;6086774;19;20007;-71
2023/12/17 01:35:49;;;;;;;6.05;2.97;;;;;;;9.35;100.00;103720.75;6086524;19;20007;-71
2023/12/17 01:37:54;;;;;;;7.57;3.72;;;;;;;9.34;100.00;103724.22;6088351;19;20022;-73
2023/12/17 01:39:56;;;;;;;6.13;3.58;;;;;;;9.36;100.00;103733.84;6088638;19;20539;-73
2023/12/17 01:42:01;;;;;;;7.40;3.10;;;;;;;9.40;100.00;103734.75;6088132;19;20439;-72
2023/12/17 01:44:06;;;;;;;7.32;4.20;;;;;;;9.40;100.00;103732.13;6086289;19;20015;-71
2023/12/17 01:46:16;;;;;;;5.88;2.95;;;;;;;9.35;100.00;103739.13;6087091;19;20031;-70
2023/12/17 01:48:21;;;;;;;8.20;3.10;;;;;;;9.34;100.00;103732.94;6089343;19;20014;-71
2023/12/17 01:50:24;;;;;;;7.90;3.15;;;;;;;9.30;100.00;103727.69;6085628;19;20019;-71
2023/12/17 01:52:30;;;;;;;10.73;3.55;;;;;;;9.30;100.00;103723.31;6083376;19;20524;-72
2023/12/17 01:54:36;;;;;;;8.38;3.10;;;;;;;9.29;100.00;103723.28;6087109;19;20041;-71
2023/12/17 01:56:42;;;;;;;6.22;2.95;;;;;;;9.31;100.00;103724.19;6087786;19;20035;-71
2023/12/17 01:58:48;;;;;;;10.95;3.22;;;;;;;9.30;100.00;103728.56;6086791;19;20360;-71
2023/12/17 02:00:54;;;;;;;9.10;3.17;;;;;;;9.32;100.00;103736.44;6087845;19;20534;-72
2023/12/17 02:03:01;;;;;;;8.50;2.97;;;;;;;9.29;100.00;103736.41;6087460;19;20011;-71
2023/12/17 02:05:10;;;;;;;7.25;2.80;;;;;;;9.26;100.00;103733.75;6087372;19;20769;-71
2023/12/17 02:07:17;;;;;;;4.93;2.80;;;;;;;9.29;100.00;103731.16;6087707;19;20101;-72
2023/12/17 02:09:21;;;;;;;9.57;2.80;;;;;;;9.33;100.00;103728.59;6088178;19;20010;-72
2023/12/17 02:11:29;;;;;;;5.13;2.60;;;;;;;9.34;100.00;103726.84;6087015;19;20010;-72
2023/12/17 02:13:35;;;;;;;4.60;2.30;;;;;;;9.33;100.00;103744.31;6087502;19;20018;-72
2023/12/17 02:15:40;;;;;;;8.07;2.80;;;;;;;9.31;100.00;103739.91;6089358;19;20006;-72
2023/12/17 02:17:45;;;;;;;6.15;2.63;;;;;;;9.34;100.00;103750.44;6089079;19;20018;-71
2023/12/17 02:19:52;;;;;;;6.70;2.67;;;;;;;9.32;100.00;103752.16;6086994;19;19999;-71
2023/12/17 02:21:57;;;;;;;6.28;2.50;;;;;;;9.34;100.00;103750.44;6088825;19;20091;-72
2023/12/17 02:24:05;;;;;;;5.00;2.90;;;;;;;9.36;100.00;103761.84;6087785;19;20090;-72
2023/12/17 02:26:10;;;;;;;4.95;2.40;;;;;;;9.33;100.00;103767.94;6087418;19;20097;-73
2023/12/17 02:28:17;;;;;;;10.05;3.97;;;;;;;9.32;100.00;103768.81;6086992;19;20519;-71
2023/12/17 02:30:22;;;;;;;11.80;2.92;;;;;;;9.37;100.00;103776.72;6088138;19;20011;-72
2023/12/17 02:32:27;;;;;;;8.80;3.63;;;;;;;9.37;100.00;103771.47;6088469;19;20003;-70
2023/12/17 02:34:34;;;;;;;7.63;3.58;;;;;;;9.36;100.00;103772.34;6085383;19;20011;-73
2023/12/17 02:36:39;;;;;;;7.53;3.38;;;;;;;9.34;100.00;103771.44;6088454;19;20019;-73
2023/12/17 02:38:47;;;;;;;13.10;3.97;;;;;;;9.33;100.00;103769.69;6087433;19;20426;-72
2023/12/17 02:40:52;;;;;;;7.25;3.30;;;;;;;9.31;100.00;103756.53;6084847;19;20423;-72
2023/12/17 02:42:57;;;;;;;7.97;3.72;;;;;;;9.33;100.00;103756.56;6084694;19;20014;-72
2023/12/17 02:45:02;;;;;;;16.90;3.22;;;;;;;9.32;100.00;103760.03;6087197;19;20346;-72
2023/12/17 02:47:07;;;;;;;13.20;3.05;;;;;;;9.31;100.00;103751.28;6085379;19;20074;-72
2023/12/17 02:49:11;;;;;;;9.85;3.28;;;;;;;9.33;100.00;103746.06;6088734;19;20024;-73
2023/12/17 02:51:16;;;;;;;9.88;3.40;;;;;;;9.35;100.00;103747.84;6087048;19;20042;-70
2023/12/17 02:53:21;;;;;;;13.05;4.47;;;;;;;9.34;100.00;103740.81;6083655;19;20018;-73
2023/12/17 02:55:27;;;;;;;7.18;3.72;;;;;;;9.36;100.00;103738.22;6089350;19;20018;-71
2023/12/17 02:57:34;;;;;;;15.40;4.15;;;;;;;9.32;100.00;103726.84;6083607;19;20287;-71
2023/12/17 02:59:42;;;;;;;15.18;5.50;;;;;;;9.31;100.00;103734.69;6085181;19;20355;-71
2023/12/17 03:01:47;;;;;;;15.95;4.95;;;;;;;9.31;100.00;103734.69;6085751;19;20336;-72
2023/12/17 03:03:52;;;;;;;10.50;4.10;;;;;;;9.26;100.00;103747.72;6085479;19;20090;-72
2023/12/17 03:05:54;;;;;;;14.70;3.58;;;;;;;9.29;100.00;103744.28;6082077;19;20037;-72
2023/12/17 03:07:59;;;;;;;15.63;3.63;;;;;;;9.26;100.00;103757.34;6086343;19;20511;-71
2023/12/17 03:10:02;;;;;;;5.47;2.70;;;;;;;9.28;100.00;103737.28;6085018;19;20049;-71
2023/12/17 03:12:07;;;;;;;;;;;;;;;9.28;100.00;103737.28;6087060;19;20019;-71
2023/12/17 03:14:15;;;;;;;5.63;2.85;;;;;;;9.25;100.00;103735.50;6085012;19;20426;-72
2023/12/17 03:16:17;;;;;;;13.32;3.13;;;;;;;9.28;100.00;103730.28;6085379;19;20023;-73
2023/12/17 03:18:22;;;;;;;11.05;3.50;;;;;;;9.26;100.00;103731.13;6084878;19;20038;-73
2023/12/17 03:20:30;;;;;;;10.13;2.97;;;;;;;9.20;100.00;103721.44;6084863;19;20006;-73
2023/12/17 03:22:35;;;;;;;9.68;3.42;;;;;;;9.22;100.00;103724.97;6084783;19;20109;-72
2023/12/17 03:24:40;;;;;;;13.20;3.65;;;;;;;9.23;100.00;103730.22;6084911;19;20010;-71
2023/12/17 03:26:44;;;;;;;13.02;4.38;;;;;;;9.18;100.00;103721.41;6084366;19;20007;-72
2023/12/17 03:28:51;;;;;;;8.52;3.33;;;;;;;9.16;100.00;103720.53;6086059;19;20014;-72
2023/12/17 03:30:59;;;;;;;12.15;3.63;;;;;;;9.19;100.00;103711.81;6086028;19;20567;-71
2023/12/17 03:33:04;;;;;;;13.07;4.13;;;;;;;9.16;100.00;103717.91;6086179;19;20040;-71
2023/12/17 03:35:09;;;;;;;13.70;4.00;;;;;;;9.16;100.00;103711.75;6085594;19;20010;-73
2023/12/17 03:37:17;;;;;;;17.20;4.32;;;;;;;9.17;100.00;103705.66;6085834;19;20049;-73
2023/12/17 03:39:22;;;;;;;10.82;4.13;;;;;;;9.16;100.00;103709.13;6084421;19;20021;-72
2023/12/17 03:41:31;;;;;;;12.63;4.25;;;;;;;9.16;100.00;103711.75;6085019;19;20480;-72
2023/12/17 03:43:39;;;;;;;11.55;3.95;;;;;;;9.14;100.00;103711.75;6084698;19;20099;-72
2023/12/17 03:45:44;;;;;;;11.75;4.00;;;;;;;9.10;100.00;103719.56;6076561;19;20014;-72
2023/12/17 03:47:52;;;;;;;11.20;3.70;;;;;;;9.13;100.00;103715.22;6084822;19;20015;-72
2023/12/17 03:49:54;;;;;;;10.93;4.43;;;;;;;9.10;100.00;103715.19;6082872;19;20010;-73
2023/12/17 03:51:59;;;;;;;10.73;3.88;;;;;;;9.08;100.00;103716.03;6081219;19;20006;-71
2023/12/17 03:54:01;;;;;;;17.50;5.03;;;;;;;9.05;100.00;103714.25;6083883;19;20037;-72
2023/12/17 03:56:10;;;;;;;11.20;4.90;;;;;;;9.05;100.00;103714.25;6084116;19;20055;-71
2023/12/17 03:58:15;;;;;;;11.45;4.47;;;;;;;9.02;100.00;103701.09;6085341;19;20251;-71
2023/12/17 04:00:23;;;;;;;9.90;4.35;;;;;;;9.04;100.00;103703.75;6083645;19;20086;-72
2023/12/17 04:02:30;;;;;;;15.85;4.72;;;;;;;9.05;100.00;103705.50;6083962;19;20077;-72
2023/12/17 04:04:40;;;;;;;10.60;4.40;;;;;;;9.00;100.00;103688.00;6085353;19;20082;-71
2023/12/17 04:06:46;;;;;;;16.52;5.20;;;;;;;9.00;100.00;103687.09;6084770;19;20345;-71
2023/12/17 04:08:52;;;;;;;13.98;4.25;;;;;;;9.00;100.00;103692.34;6084007;19;20090;-73
2023/12/17 04:10:57;;;;;;;9.00;3.47;;;;;;;8.98;100.00;103681.84;6084237;19;20023;-74
2023/12/17 04:13:01;;;;;;;9.98;3.85;;;;;;;8.95;100.00;103683.53;6084792;19;20010;-71
2023/12/17 04:15:09;;;;;;;9.02;3.15;;;;;;;8.94;100.00;103684.41;6084720;19;20021;-73
2023/12/17 04:17:14;;;;;;;8.80;3.58;;;;;;;8.97;100.00;103689.69;6083593;19;20022;-72
2023/12/17 04:19:22;;;;;;;9.93;3.83;;;;;;;8.96;100.00;103685.31;6085089;19;20014;-72
2023/12/17 04:21:29;;;;;;;12.68;4.82;;;;;;;8.99;100.00;103680.97;6083499;19;20031;-72
2023/12/17 04:23:34;;;;;;;15.10;4.88;;;;;;;8.97;100.00;103676.56;6084422;19;20010;-72
2023/12/17 04:25:39;;;;;;;13.45;4.57;;;;;;;8.94;100.00;103679.16;6083258;19;20027;-72
2023/12/17 04:27:44;;;;;;;16.42;5.72;;;;;;;8.97;100.00;103679.19;6083300;19;20020;-71
2023/12/17 04:29:49;;;;;;;20.35;5.32;;;;;;;8.94;100.00;103679.16;6083627;19;20011;-70
2023/12/17 04:31:54;;;;;;;19.23;6.00;;;;;;;8.98;100.00;103675.72;6085025;19;20023;-71
2023/12/17 04:33:59;;;;;;;18.23;5.20;;;;;;;8.99;100.00;103669.59;6083722;19;20006;-71
2023/12/17 04:36:05;;;;;;;15.02;6.13;;;;;;;8.93;100.00;103682.66;6077768;19;20046;-70
2023/12/17 04:38:13;;;;;;;17.10;6.18;;;;;;;8.93;100.00;103674.78;6083907;19;20015;-73
2023/12/17 04:40:20;;;;;;;14.07;4.95;;;;;;;8.91;100.00;103679.13;6080762;19;20021;-71
2023/12/17 04:42:25;;;;;;;17.00;5.57;;;;;;;8.90;100.00;103687.84;6084518;19;20004;-72
2023/12/17 04:44:30;;;;;;;16.33;5.38;;;;;;;8.95;100.00;103686.16;6082419;19;20470;-71
2023/12/17 04:46:35;;;;;;;21.45;5.72;;;;;;;8.90;100.00;103679.97;6081961;19;20018;-71
2023/12/17 04:48:40;;;;;;;22.70;5.13;;;;;;;8.89;100.00;103679.09;6084157;19;20067;-73
2023/12/17 04:50:45;;;;;;;16.17;5.35;;;;;;;8.88;100.00;103679.97;6083909;19;20026;-71
2023/12/17 04:52:50;;;;;;;24.50;6.18;;;;;;;8.88;100.00;103679.09;6082657;19;20010;-71
2023/12/17 04:54:58;;;;;;;22.05;7.28;;;;;;;8.88;100.00;103673.84;6083765;19;20019;-71
2023/12/17 04:57:03;;;;;;;20.17;5.60;;;;;;;8.87;100.00;103669.44;6083118;19;20006;-70
2023/12/17 04:59:05;;;;;;;22.10;6.15;;;;;;;8.87;100.00;103674.69;6082852;19;20367;-71
2023/12/17 05:01:10;;;;;;;15.90;6.10;;;;;;;8.83;100.00;103670.28;6081697;19;20014;-71
2023/12/17 05:03:17;;;;;;;15.23;6.10;;;;;;;8.87;100.00;103672.06;6083369;19;20006;-72
2023/12/17 05:05:22;;;;;;;24.80;6.43;;;;;;;8.89;100.00;103672.97;6083312;19;20014;-73
2023/12/17 05:07:28;;;;;;;14.85;5.32;;;;;;;8.90;100.00;103662.53;6082503;19;20082;-73
2023/12/17 05:09:33;;;;;;;16.45;6.05;;;;;;;8.89;100.00;103657.25;6081541;19;20015;-73
2023/12/17 05:11:40;;;;;;;23.27;5.25;;;;;;;8.90;100.00;103648.50;6083554;19;20015;-71
2023/12/17 05:13:45;;;;;;;17.63;5.88;;;;;;;8.91;100.00;103650.28;6082472;19;20010;-70
2023/12/17 05:15:50;;;;;;;17.42;5.22;;;;;;;8.87;100.00;103664.19;6084458;19;20018;-72
2023/12/17 05:17:55;;;;;;;15.98;5.70;;;;;;;8.91;100.00;103669.50;6082125;19;20011;-72
2023/12/17 05:20:00;;;;;;;13.88;6.30;;;;;;;8.92;100.00;103667.75;6083045;19;20030;-71
2023/12/17 05:22:05;;;;;;;18.20;5.63;;;;;;;8.92;100.00;103665.13;6086866;19;20010;-72
2023/12/17 05:24:10;;;;;;;21.23;5.85;;;;;;;8.91;100.00;103648.53;6090766;19;20078;-72
2023/12/17 05:26:15;;;;;;;16.98;6.15;;;;;;;8.86;100.00;103657.22;6088503;19;20081;-72
2023/12/17 05:28:23;;;;;;;15.88;6.18;;;;;;;8.89;100.00;103650.25;6085055;19;20548;-73
2023/12/17 05:30:28;;;;;;;25.88;6.47;;;;;;;8.93;100.00;103659.06;6089761;19;20023;-73
2023/12/17 05:32:33;;;;;;;12.88;6.43;;;;;;;8.89;100.00;103654.63;6090242;19;20010;-73
2023/12/17 05:34:38;;;;;;;22.23;7.18;;;;;;;8.92;100.00;103662.50;6086694;19;20010;-71
2023/12/17 05:36:43;;;;;;;22.58;6.75;;;;;;;8.90;100.00;103656.38;6085399;19;20015;-71
2023/12/17 05:38:52;;;;;;;13.13;6.18;;;;;;;8.87;100.00;103651.09;6084037;19;20573;-72
2023/12/17 05:40:56;;;;;;;15.02;6.38;;;;;;;8.87;100.00;103653.72;6088379;19;20043;-72
2023/12/17 05:43:02;;;;;;;25.92;6.38;;;;;;;8.92;100.00;103650.28;6087499;19;20011;-72
2023/12/17 05:45:10;;;;;;;21.48;6.55;;;;;;;8.91;100.00;103656.41;6087435;19;20028;-72
2023/12/17 05:47:13;;;;;;;18.13;6.78;;;;;;;8.91;100.00;103651.16;6086187;19;20601;-71
2023/12/17 05:49:18;;;;;;;24.02;6.53;;;;;;;8.90;100.00;103662.53;6088472;19;20018;-71
2023/12/17 05:51:24;;;;;;;20.20;6.57;;;;;;;8.90;100.00;103664.22;6086430;19;20482;-71
2023/12/17 05:53:29;;;;;;;21.73;6.95;;;;;;;8.92;100.00;103667.75;6085529;19;20090;-71
2023/12/17 05:55:45;;;;;;;19.17;7.65;;;;;;;8.88;100.00;103661.63;6086784;19;20015;-71
2023/12/17 05:57:51;;;;;;;21.63;7.40;;;;;;;8.90;100.00;103661.63;6088167;19;20056;-73
2023/12/17 06:00:00;;;;;;;17.40;7.97;;;;;;;8.90;100.00;103661.63;6087191;19;20362;-71
2023/12/17 06:02:09;;;;;;;24.77;8.48;;;;;;;8.90;100.00;103669.47;6084596;19;20045;-70
2023/12/17 06:04:16;;;;;;;27.20;7.55;;;;;;;8.88;100.00;103668.59;6085586;19;20320;-71
2023/12/17 06:06:21;;;;;;;20.50;9.05;;;;;;;8.87;100.00;103664.19;6088381;19;20130;-71
2023/12/17 06:08:28;;;;;;;20.35;8.93;;;;;;;8.84;100.00;103664.16;6086601;19;20014;-71
2023/12/17 06:10:33;;;;;;;21.20;8.05;;;;;;;8.84;100.00;103674.66;6087778;19;20010;-71
2023/12/17 06:12:38;;;;;;;29.10;11.07;;;;;;;8.85;100.00;103668.56;6087203;19;20403;-72
2023/12/17 06:14:44;;;;;;;26.63;11.55;;;;;;;8.86;100.00;103678.19;6086986;19;20007;-72
2023/12/17 06:16:49;;;;;;;29.38;10.05;;;;;;;8.84;100.00;103675.53;6088879;19;20033;-73
2023/12/17 06:18:54;;;;;;;32.70;10.82;;;;;;;8.84;100.00;103670.28;6087504;19;20385;-72
2023/12/17 06:21:01;;;;;;;42.35;13.82;;;;;;;8.83;100.00;103670.28;6084384;19;20475;-71
2023/12/17 06:23:09;;;;;;;35.30;14.02;;;;;;;8.83;100.00;103667.66;6083726;19;20014;-72
2023/12/17 06:25:14;;;;;;;45.22;14.27;;;;;;;8.81;100.00;103664.13;6087133;19;20522;-74
2023/12/17 06:27:22;;;;;;;45.88;14.65;;;;;;;8.81;100.00;103656.28;6085795;19;20477;-72
2023/12/17 06:29:27;;;;;;;38.75;14.45;;;;;;;8.82;100.00;103655.41;6085972;19;20478;-72
2023/12/17 06:31:35;;;;;;;43.80;15.50;;;;;;;8.76;100.00;103657.09;6085451;19;20754;-71
2023/12/17 06:33:40;;;;;;;51.67;19.13;;;;;;;8.76;100.00;103656.22;6086352;19;20019;-71
2023/12/17 06:35:48;;;;;;;56.97;18.60;;;;;;;8.77;100.00;103652.75;6086316;19;20093;-71
2023/12/17 06:37:53;;;;;;;52.05;18.20;;;;;;;8.82;100.00;103655.41;6086094;19;20045;-71
2023/12/17 06:39:59;;;;;;;44.42;17.88;;;;;;;8.83;100.00;103657.19;6086385;19;20018;-71
2023/12/17 06:42:04;;;;;;;49.67;16.58;;;;;;;8.79;100.00;103654.53;6088089;19;20026;-72
2023/12/17 06:44:09;;;;;;;53.05;19.13;;;;;;;8.78;100.00;103658.00;6087622;19;20019;-73
2023/12/17 06:46:19;;;;;;;51.17;18.23;;;;;;;8.83;100.00;103654.56;6084214;19;20467;-72
2023/12/17 06:48:22;;;;;;;50.22;17.20;;;;;;;8.77;100.00;103656.25;6085382;19;20010;-71
2023/12/17 06:50:29;;;;;;;49.92;18.10;;;;;;;8.74;100.00;103669.31;6088520;19;20722;-72
2023/12/17 06:52:36;;;;;;;48.53;16.40;;;;;;;8.72;100.00;103675.41;6086287;19;20055;-71
2023/12/17 06:54:42;;;;;;;55.28;19.42;;;;;;;8.73;100.00;103674.53;6084159;19;20019;-71
2023/12/17 06:56:47;;;;;;;42.67;16.80;;;;;;;8.75;100.00;103678.06;6086588;19;20011;-71
2023/12/17 06:58:53;;;;;;;53.90;18.15;;;;;;;8.69;100.00;103667.47;6085273;19;20466;-70
2023/12/17 07:00:58;;;;;;;51.45;17.40;;;;;;;8.76;100.00;103682.44;6086247;19;20049;-72
2023/12/17 07:03:03;;;;;;;44.50;17.40;;;;;;;8.70;100.00;103672.75;6084658;19;20022;-72
2023/12/17 07:05:08;;;;;;;58.97;19.98;;;;;;;8.71;100.00;103674.50;6085479;19;20024;-72
2023/12/17 07:07:20;;;;;;;46.17;17.23;;;;;;;8.68;100.00;103671.84;6085488;19;20011;-72
2023/12/17 07:09:27;;;;;;;48.97;17.90;;;;;;;8.67;100.00;103666.59;6085453;19;20023;-71
2023/12/17 07:11:32;;;;;;;33.00;15.40;;;;;;;8.66;100.00;103670.97;6083978;19;20574;-70
2023/12/17 07:13:37;;;;;;;46.58;16.45;;;;;;;8.64;100.00;103664.81;6084877;19;20035;-72
2023/12/17 07:15:43;;;;;;;44.78;16.45;;;;;;;8.63;100.00;103649.94;6085271;19;20535;-71
2023/12/17 07:17:49;;;;;;;37.67;14.95;;;;;;;8.58;100.00;103654.22;6083212;19;20029;-73
2023/12/17 07:19:53;;;;;;;34.17;14.23;;;;;;;8.60;100.00;103656.88;6085320;19;20070;-72
2023/12/17 07:21:59;;;;;;;36.35;14.48;;;;;;;8.57;100.00;103657.72;6085602;19;20393;-73
2023/12/17 07:24:04;;;;;;;44.17;13.90;;;;;;;8.60;100.00;103665.63;6085696;19;20006;-72
2023/12/17 07:26:09;;;;;;;29.38;13.63;;;;;;;8.62;100.00;103668.28;6085747;19;20011;-71
2023/12/17 07:28:15;;;;;;;28.55;13.13;;;;;;;8.58;100.00;103659.47;6085352;19;20498;-73
2023/12/17 07:30:20;;;;;;;35.58;12.00;;;;;;;8.60;100.00;103670.00;6084022;19;20010;-73
2023/12/17 07:32:25;;;;;;;34.67;14.07;;;;;;;8.53;100.00;103666.38;6083885;19;20018;-72
2023/12/17 07:34:30;;;;;;;28.50;12.55;;;;;;;8.54;100.00;103668.16;6082163;19;20479;-73
2023/12/17 07:36:35;;;;;;;29.08;12.70;;;;;;;8.51;100.00;103660.28;6084757;19;20024;-73
2023/12/17 07:38:40;;;;;;;25.70;12.90;;;;;;;8.51;100.00;103673.38;6083848;19;20581;-72
2023/12/17 07:40:43;;;;;;;31.38;13.95;;;;;;;8.49;100.00;103664.59;6085056;19;20534;-72
2023/12/17 07:42:51;;;;;;;36.55;14.52;;;;;;;8.48;100.00;103675.97;6084357;19;20866;-72
2023/12/17 07:44:56;;;;;;;33.42;13.93;;;;;;;8.48;100.00;103661.13;6086417;19;20024;-72
2023/12/17 07:47:01;;;;;;;35.05;13.88;;;;;;;8.42;100.00;103670.63;6083676;19;20077;-73
2023/12/17 07:49:05;;;;;;;42.72;14.30;;;;;;;8.39;100.00;103674.06;6082419;19;20010;-72
2023/12/17 07:51:11;;;;;;;37.17;16.05;;;;;;;8.38;100.00;103674.91;6082797;19;20416;-73
2023/12/17 07:53:16;;;;;;;36.28;14.32;;;;;;;8.38;100.00;103674.03;6082662;19;20015;-72
2023/12/17 07:55:21;;;;;;;34.00;13.45;;;;;;;8.34;100.00;103686.19;6084312;19;20036;-72
2023/12/17 07:57:26;;;;;;;35.20;14.95;;;;;;;8.31;100.00;103683.53;6084616;19;20027;-72
2023/12/17 07:59:34;;;;;;;32.40;14.25;;;;;;;8.32;100.00;103675.72;6081940;19;20018;-72
2023/12/17 08:01:36;;;;;;;37.45;14.23;;;;;;;8.31;100.00;103678.28;6084389;19;20015;-72
2023/12/17 08:03:42;;;;;;;52.67;17.58;;;;;;;8.28;100.00;103688.72;6081436;19;20037;-72
2023/12/17 08:05:47;;;;;;;46.33;15.70;;;;;;;8.25;100.00;103680.84;6084376;19;20383;-72
2023/12/17 08:07:53;;;;;;;35.72;16.08;;;;;;;8.24;100.00;103690.44;6083863;19;20033;-72
2023/12/17 08:09:58;;;;;;;38.47;14.68;;;;;;;8.22;100.00;103686.91;6084071;19;20011;-72
2023/12/17 08:12:03;;;;;;;41.50;14.95;;;;;;;8.22;100.00;103686.03;6083672;19;20010;-72
2023/12/17 08:14:08;;;;;;;47.03;16.35;;;;;;;8.19;100.00;103680.72;6082236;19;20010;-72
2023/12/17 08:16:18;;;;;;;37.92;15.07;;;;;;;8.14;100.00;103685.91;6085513;19;20115;-71
2023/12/17 08:18:23;;;;;;;42.50;15.32;;;;;;;8.17;100.00;103691.19;6084655;19;20027;-72
2023/12/17 08:20:28;;;;;;;39.42;14.23;;;;;;;8.16;100.00;103696.41;6085704;19;20015;-72
2023/12/17 08:22:33;;;;;;;35.85;13.70;;;;;;;8.18;100.00;103698.19;6085188;19;20015;-73
2023/12/17 08:24:38;;;;;;;36.42;14.35;;;;;;;8.16;100.00;103692.03;6085542;19;20064;-72
2023/12/17 08:26:43;;;;;;;42.10;15.50;;;;;;;8.15;100.00;103692.91;6082528;19;20010;-72
2023/12/17 08:28:51;;;;;;;44.80;15.70;;;;;;;8.12;100.00;103692.84;6083489;19;20098;-72
2023/12/17 08:30:56;;;;;;;33.97;14.02;;;;;;;8.09;100.00;103696.31;6086551;19;20010;-73
2023/12/17 08:33:05;;;;;;;41.25;16.27;;;;;;;8.10;100.00;103691.94;6084991;19;20053;-71
2023/12/17 08:35:11;;;;;;;42.90;16.83;;;;;;;8.11;100.00;103696.34;6084471;19;20007;-71
2023/12/17 08:37:16;;;;;;;44.28;15.85;;;;;;;8.07;100.00;103689.28;6081230;19;20018;-70
2023/12/17 08:39:23;;;;;;;41.65;17.58;;;;;;;8.06;100.00;103687.53;6084402;19;20021;-72
2023/12/17 08:41:31;;;;;;;47.58;16.60;;;;;;;8.07;100.00;103691.91;6083567;19;20037;-71
2023/12/17 08:43:36;;;;;;;44.95;16.13;;;;;;;8.10;100.00;103690.19;6082894;19;20010;-71
2023/12/17 08:45:41;;;;;;;45.63;15.25;;;;;;;8.10;100.00;103686.72;6084307;19;20038;-71
2023/12/17 08:47:46;;;;;;;43.92;14.57;;;;;;;8.06;100.00;103682.28;6083316;19;20092;-71
2023/12/17 08:49:51;;;;;;;40.72;14.73;;;;;;;8.03;100.00;103683.13;6081839;19;20368;-72
2023/12/17 08:51:56;;;;;;;41.22;15.88;;;;;;;8.04;100.00;103682.25;6083674;19;20049;-72
2023/12/17 08:54:01;;;;;;;46.97;15.07;;;;;;;8.00;100.00;103690.91;6082281;19;20003;-71
2023/12/17 08:56:10;;;;;;;38.63;15.65;;;;;;;8.01;100.00;103687.44;6085685;19;20006;-71
2023/12/17 08:58:15;;;;;;;42.60;14.48;;;;;;;8.00;100.00;103690.03;6089505;19;20497;-71
2023/12/17 09:00:23;;;;;;;42.92;15.38;;;;;;;7.95;100.00;103689.94;6087791;19;20046;-70
2023/12/17 09:02:28;;;;;;;53.78;19.88;;;;;;;7.96;100.00;103686.50;6089371;19;20632;-71
2023/12/17 09:04:33;;;;;;;52.85;18.23;;;;;;;7.98;100.00;103684.78;6089636;19;20018;-72
2023/12/17 09:06:44;;;;;;;55.72;17.65;;;;;;;7.99;100.00;103690.91;6090032;19;20494;-73
2023/12/17 09:08:49;;;;;;;53.53;18.27;;;;;;;7.99;100.00;103696.13;6086978;19;20014;-72
2023/12/17 09:10:51;;;;;;;55.67;17.80;;;;;;;8.00;100.00;103705.75;6087457;19;20019;-71
2023/12/17 09:12:57;;;;;;;56.50;18.73;;;;;;;8.01;100.00;103700.53;6089297;19;20007;-72
2023/12/17 09:15:02;;;;;;;47.63;17.70;;;;;;;8.00;100.00;103698.75;6088949;19;20023;-72
2023/12/17 09:17:04;;;;;;;46.05;18.38;;;;;;;8.02;100.00;103693.56;6090440;19;20397;-72
2023/12/17 09:19:09;;;;;;;46.38;17.85;;;;;;;8.05;100.00;103702.34;6089741;19;20042;-72
2023/12/17 09:21:17;;;;;;;50.50;18.45;;;;;;;8.02;100.00;103707.53;6089433;19;20133;-71
2023/12/17 09:23:25;;;;;;;50.97;18.92;;;;;;;8.03;100.00;103697.94;6086544;19;20011;-71
2023/12/17 09:25:29;;;;;;;50.78;16.88;;;;;;;8.03;100.00;103701.47;6085132;19;20085;-72
2023/12/17 09:27:32;;;;;;;51.13;18.55;;;;;;;7.97;100.00;103706.56;6089617;19;20472;-71
2023/12/17 09:29:37;;;;;;;53.92;18.45;;;;;;;7.94;100.00;103700.41;6084926;19;20045;-71
2023/12/17 09:31:43;;;;;;;60.70;20.40;;;;;;;7.94;100.00;103703.91;6089123;19;20020;-72
2023/12/17 09:33:50;;;;;;;51.88;18.67;;;;;;;7.89;100.00;103711.69;6091783;19;20070;-71
2023/12/17 09:35:56;;;;;;;47.10;18.45;;;;;;;7.86;100.00;103711.63;6091149;19;20010;-71
2023/12/17 09:38:01;;;;;;;58.80;19.58;;;;;;;7.91;100.00;103711.72;6089263;19;20038;-72